sensor_id;sensor_type;location;lat;lon;timestamp;temperature;humidity
52381;DHT22;38310;52.796;6.942;2022-09-25T00:00:32;9.80;99.90
52381;DHT22;38310;52.796;6.942;2022-09-25T00:02:57;9.70;99.90
52381;DHT22;38310;52.796;6.942;2022-09-25T00:05:23;9.70;99.90
52381;DHT22;38310;52.796;6.942;2022-09-25T00:07:49;9.70;99.90
52381;DHT22;38310;52.796;6.942;2022-09-25T00:10:16;9.70;99.90
52381;DHT22;38310;52.796;6.942;2022-09-25T00:12:42;9.70;99.90
52381;DHT22;38310;52.796;6.942;2022-09-25T00:15:08;9.70;99.90
52381;DHT22;38310;52.796;6.942;2022-09-25T00:17:34;9.70;99.90
52381;DHT22;38310;52.796;6.942;2022-09-25T00:20:00;9.60;99.90
52381;DHT22;38310;52.796;6.942;2022-09-25T00:22:27;9.60;99.90
52381;DHT22;38310;52.796;6.942;2022-09-25T00:24:53;9.60;99.90
52381;DHT22;38310;52.796;6.942;2022-09-25T00:27:19;9.60;99.90
52381;DHT22;38310;52.796;6.942;2022-09-25T00:29:45;9.60;99.90
52381;DHT22;38310;52.796;6.942;2022-09-25T00:32:12;9.50;99.90
52381;DHT22;38310;52.796;6.942;2022-09-25T00:34:38;9.50;99.90
52381;DHT22;38310;52.796;6.942;2022-09-25T00:37:05;9.60;99.90
52381;DHT22;38310;52.796;6.942;2022-09-25T00:39:32;9.50;99.90
52381;DHT22;38310;52.796;6.942;2022-09-25T00:41:58;9.50;99.90
52381;DHT22;38310;52.796;6.942;2022-09-25T00:45:00;9.50;99.90
52381;DHT22;38310;52.796;6.942;2022-09-25T00:47:53;9.40;99.90
52381;DHT22;38310;52.796;6.942;2022-09-25T00:50:41;9.40;99.90
52381;DHT22;38310;52.796;6.942;2022-09-25T00:53:21;9.30;99.90
52381;DHT22;38310;52.796;6.942;2022-09-25T00:55:47;9.30;99.90
52381;DHT22;38310;52.796;6.942;2022-09-25T00:58:17;9.30;99.90
52381;DHT22;38310;52.796;6.942;2022-09-25T01:00:44;9.30;99.90
52381;DHT22;38310;52.796;6.942;2022-09-25T01:03:10;9.20;99.90
52381;DHT22;38310;52.796;6.942;2022-09-25T01:05:37;9.20;99.90
52381;DHT22;38310;52.796;6.942;2022-09-25T01:08:09;9.10;99.90
52381;DHT22;38310;52.796;6.942;2022-09-25T01:10:37;9.10;99.90
52381;DHT22;38310;52.796;6.942;2022-09-25T01:13:03;9.10;99.90
52381;DHT22;38310;52.796;6.942;2022-09-25T01:15:50;9.30;99.90
52381;DHT22;38310;52.796;6.942;2022-09-25T01:18:33;9.00;99.90
52381;DHT22;38310;52.796;6.942;2022-09-25T01:27:15;8.90;99.90
52381;DHT22;38310;52.796;6.942;2022-09-25T01:43:40;8.80;99.90
52381;DHT22;38310;52.796;6.942;2022-09-25T01:46:15;8.80;99.90
52381;DHT22;38310;52.796;6.942;2022-09-25T01:48:45;8.70;99.90
52381;DHT22;38310;52.796;6.942;2022-09-25T01:51:29;8.70;99.90
52381;DHT22;38310;52.796;6.942;2022-09-25T01:54:03;8.70;99.90
52381;DHT22;38310;52.796;6.942;2022-09-25T01:56:36;8.70;99.90
52381;DHT22;38310;52.796;6.942;2022-09-25T01:59:15;8.60;99.90
52381;DHT22;38310;52.796;6.942;2022-09-25T02:01:43;8.60;99.90
52381;DHT22;38310;52.796;6.942;2022-09-25T02:04:14;8.60;99.90
52381;DHT22;38310;52.796;6.942;2022-09-25T02:06:45;8.60;99.90
52381;DHT22;38310;52.796;6.942;2022-09-25T02:09:21;8.50;99.90
52381;DHT22;38310;52.796;6.942;2022-09-25T02:11:52;8.50;99.90
52381;DHT22;38310;52.796;6.942;2022-09-25T02:14:23;8.50;99.90
52381;DHT22;38310;52.796;6.942;2022-09-25T02:16:53;8.50;99.90
52381;DHT22;38310;52.796;6.942;2022-09-25T02:19:20;8.50;99.90
52381;DHT22;38310;52.796;6.942;2022-09-25T02:22:21;8.50;99.90
52381;DHT22;38310;52.796;6.942;2022-09-25T02:24:56;8.50;99.90
52381;DHT22;38310;52.796;6.942;2022-09-25T02:27:24;8.50;99.90
52381;DHT22;38310;52.796;6.942;2022-09-25T02:29:52;8.50;99.90
52381;DHT22;38310;52.796;6.942;2022-09-25T02:32:30;8.50;99.90
52381;DHT22;38310;52.796;6.942;2022-09-25T02:34:58;8.40;99.90
52381;DHT22;38310;52.796;6.942;2022-09-25T02:37:29;8.40;99.90
52381;DHT22;38310;52.796;6.942;2022-09-25T02:39:58;8.50;99.90
52381;DHT22;38310;52.796;6.942;2022-09-25T02:51:29;8.30;99.90
52381;DHT22;38310;52.796;6.942;2022-09-25T02:54:11;8.20;99.90
52381;DHT22;38310;52.796;6.942;2022-09-25T02:56:52;8.20;99.90
52381;DHT22;38310;52.796;6.942;2022-09-25T02:59:26;8.30;99.90
52381;DHT22;38310;52.796;6.942;2022-09-25T03:01:54;8.10;99.90
52381;DHT22;38310;52.796;6.942;2022-09-25T03:04:22;8.10;99.90
52381;DHT22;38310;52.796;6.942;2022-09-25T03:06:48;8.10;99.90
52381;DHT22;38310;52.796;6.942;2022-09-25T03:09:16;8.00;99.90
52381;DHT22;38310;52.796;6.942;2022-09-25T03:11:45;8.00;99.90
52381;DHT22;38310;52.796;6.942;2022-09-25T03:14:11;8.00;99.90
52381;DHT22;38310;52.796;6.942;2022-09-25T03:16:49;8.00;99.90
52381;DHT22;38310;52.796;6.942;2022-09-25T03:19:16;8.10;99.90
52381;DHT22;38310;52.796;6.942;2022-09-25T03:21:44;8.00;99.90
52381;DHT22;38310;52.796;6.942;2022-09-25T03:24:10;8.00;99.90
52381;DHT22;38310;52.796;6.942;2022-09-25T03:26:36;8.00;99.90
52381;DHT22;38310;52.796;6.942;2022-09-25T03:29:02;8.00;99.90
52381;DHT22;38310;52.796;6.942;2022-09-25T03:31:31;8.00;99.90
52381;DHT22;38310;52.796;6.942;2022-09-25T03:33:59;8.00;99.90
52381;DHT22;38310;52.796;6.942;2022-09-25T03:36:28;7.90;99.90
52381;DHT22;38310;52.796;6.942;2022-09-25T03:38:55;7.90;99.90
52381;DHT22;38310;52.796;6.942;2022-09-25T03:41:33;7.90;99.90
52381;DHT22;38310;52.796;6.942;2022-09-25T03:43:59;7.80;99.90
52381;DHT22;38310;52.796;6.942;2022-09-25T03:46:27;7.80;99.90
52381;DHT22;38310;52.796;6.942;2022-09-25T03:48:54;8.00;99.90
52381;DHT22;38310;52.796;6.942;2022-09-25T03:51:21;7.80;99.90
52381;DHT22;38310;52.796;6.942;2022-09-25T03:53:48;8.10;99.90
52381;DHT22;38310;52.796;6.942;2022-09-25T03:56:16;8.40;99.90
52381;DHT22;38310;52.796;6.942;2022-09-25T03:58:44;7.80;99.90
52381;DHT22;38310;52.796;6.942;2022-09-25T04:01:09;7.80;99.90
52381;DHT22;38310;52.796;6.942;2022-09-25T04:03:36;7.80;99.90
52381;DHT22;38310;52.796;6.942;2022-09-25T04:06:03;7.80;99.90
52381;DHT22;38310;52.796;6.942;2022-09-25T04:08:30;7.70;99.90
52381;DHT22;38310;52.796;6.942;2022-09-25T04:10:57;7.70;99.90
52381;DHT22;38310;52.796;6.942;2022-09-25T04:13:27;7.70;99.90
52381;DHT22;38310;52.796;6.942;2022-09-25T04:15:58;7.60;99.90
52381;DHT22;38310;52.796;6.942;2022-09-25T04:18:25;7.70;99.90
52381;DHT22;38310;52.796;6.942;2022-09-25T04:21:14;7.70;99.90
52381;DHT22;38310;52.796;6.942;2022-09-25T04:23:41;7.70;99.90
52381;DHT22;38310;52.796;6.942;2022-09-25T04:26:07;7.70;99.90
52381;DHT22;38310;52.796;6.942;2022-09-25T04:28:33;7.70;99.90
52381;DHT22;38310;52.796;6.942;2022-09-25T04:31:00;7.70;99.90
52381;DHT22;38310;52.796;6.942;2022-09-25T04:33:26;7.60;99.90
52381;DHT22;38310;52.796;6.942;2022-09-25T04:36:10;7.70;99.90
52381;DHT22;38310;52.796;6.942;2022-09-25T04:38:36;7.70;99.90
52381;DHT22;38310;52.796;6.942;2022-09-25T04:41:02;7.70;99.90
52381;DHT22;38310;52.796;6.942;2022-09-25T04:43:31;7.80;99.90
52381;DHT22;38310;52.796;6.942;2022-09-25T04:46:02;7.80;99.90
52381;DHT22;38310;52.796;6.942;2022-09-25T04:48:29;7.80;99.90
52381;DHT22;38310;52.796;6.942;2022-09-25T04:50:55;7.80;99.90
52381;DHT22;38310;52.796;6.942;2022-09-25T04:53:23;7.80;99.90
52381;DHT22;38310;52.796;6.942;2022-09-25T04:55:51;7.80;99.90
52381;DHT22;38310;52.796;6.942;2022-09-25T04:58:19;7.80;99.90
52381;DHT22;38310;52.796;6.942;2022-09-25T05:00:45;7.80;99.90
52381;DHT22;38310;52.796;6.942;2022-09-25T05:03:10;7.70;99.90
52381;DHT22;38310;52.796;6.942;2022-09-25T05:05:36;7.70;99.90
52381;DHT22;38310;52.796;6.942;2022-09-25T05:08:03;7.70;99.90
52381;DHT22;38310;52.796;6.942;2022-09-25T05:10:31;7.70;99.90
52381;DHT22;38310;52.796;6.942;2022-09-25T05:13:01;7.80;99.90
52381;DHT22;38310;52.796;6.942;2022-09-25T05:15:29;7.80;99.90
52381;DHT22;38310;52.796;6.942;2022-09-25T05:18:17;7.80;99.90
52381;DHT22;38310;52.796;6.942;2022-09-25T05:20:43;7.80;99.90
52381;DHT22;38310;52.796;6.942;2022-09-25T05:23:09;7.80;99.90
52381;DHT22;38310;52.796;6.942;2022-09-25T05:25:35;7.80;99.90
52381;DHT22;38310;52.796;6.942;2022-09-25T05:28:01;7.70;99.90
52381;DHT22;38310;52.796;6.942;2022-09-25T05:30:29;7.70;99.90
52381;DHT22;38310;52.796;6.942;2022-09-25T05:32:56;7.80;99.90
52381;DHT22;38310;52.796;6.942;2022-09-25T05:35:27;7.80;99.90
52381;DHT22;38310;52.796;6.942;2022-09-25T05:37:53;7.70;99.90
52381;DHT22;38310;52.796;6.942;2022-09-25T05:40:19;7.70;99.90
52381;DHT22;38310;52.796;6.942;2022-09-25T05:42:46;7.70;99.90
52381;DHT22;38310;52.796;6.942;2022-09-25T05:45:13;7.70;99.90
52381;DHT22;38310;52.796;6.942;2022-09-25T05:47:40;7.70;99.90
52381;DHT22;38310;52.796;6.942;2022-09-25T05:50:08;7.80;99.90
52381;DHT22;38310;52.796;6.942;2022-09-25T05:52:35;7.80;99.90
52381;DHT22;38310;52.796;6.942;2022-09-25T05:55:01;7.80;99.90
52381;DHT22;38310;52.796;6.942;2022-09-25T05:57:35;7.80;99.90
52381;DHT22;38310;52.796;6.942;2022-09-25T06:00:03;8.10;99.90
52381;DHT22;38310;52.796;6.942;2022-09-25T06:02:29;7.90;99.90
52381;DHT22;38310;52.796;6.942;2022-09-25T06:04:55;7.90;99.90
52381;DHT22;38310;52.796;6.942;2022-09-25T06:07:20;7.90;99.90
52381;DHT22;38310;52.796;6.942;2022-09-25T06:09:46;8.00;99.90
52381;DHT22;38310;52.796;6.942;2022-09-25T06:12:12;8.00;99.90
52381;DHT22;38310;52.796;6.942;2022-09-25T06:14:38;8.00;99.90
52381;DHT22;38310;52.796;6.942;2022-09-25T06:17:05;8.20;99.90
52381;DHT22;38310;52.796;6.942;2022-09-25T06:19:31;8.10;99.90
52381;DHT22;38310;52.796;6.942;2022-09-25T06:21:58;8.10;99.90
52381;DHT22;38310;52.796;6.942;2022-09-25T06:24:23;8.20;99.90
52381;DHT22;38310;52.796;6.942;2022-09-25T06:26:49;8.20;99.90
52381;DHT22;38310;52.796;6.942;2022-09-25T06:29:15;8.30;99.90
52381;DHT22;38310;52.796;6.942;2022-09-25T06:31:41;8.30;99.90
52381;DHT22;38310;52.796;6.942;2022-09-25T06:34:10;8.30;99.90
52381;DHT22;38310;52.796;6.942;2022-09-25T06:36:36;7.90;99.90
52381;DHT22;38310;52.796;6.942;2022-09-25T06:39:02;8.50;99.90
52381;DHT22;38310;52.796;6.942;2022-09-25T06:41:28;8.60;99.90
52381;DHT22;38310;52.796;6.942;2022-09-25T06:43:54;8.80;99.90
52381;DHT22;38310;52.796;6.942;2022-09-25T06:46:20;8.90;99.90
52381;DHT22;38310;52.796;6.942;2022-09-25T06:48:53;9.00;99.90
52381;DHT22;38310;52.796;6.942;2022-09-25T06:51:20;9.10;99.90
52381;DHT22;38310;52.796;6.942;2022-09-25T06:53:46;9.20;99.90
52381;DHT22;38310;52.796;6.942;2022-09-25T06:56:12;9.30;99.90
52381;DHT22;38310;52.796;6.942;2022-09-25T06:58:38;10.40;99.90
52381;DHT22;38310;52.796;6.942;2022-09-25T07:01:04;9.40;99.90
52381;DHT22;38310;52.796;6.942;2022-09-25T07:03:34;9.40;99.90
52381;DHT22;38310;52.796;6.942;2022-09-25T07:06:18;9.50;99.90
52381;DHT22;38310;52.796;6.942;2022-09-25T07:08:45;9.60;99.90
52381;DHT22;38310;52.796;6.942;2022-09-25T07:11:24;9.70;99.90
52381;DHT22;38310;52.796;6.942;2022-09-25T07:13:50;9.80;99.90
52381;DHT22;38310;52.796;6.942;2022-09-25T07:16:20;9.80;99.90
52381;DHT22;38310;52.796;6.942;2022-09-25T07:18:46;9.90;99.90
52381;DHT22;38310;52.796;6.942;2022-09-25T07:21:13;9.90;99.90
52381;DHT22;38310;52.796;6.942;2022-09-25T07:23:39;10.10;99.90
52381;DHT22;38310;52.796;6.942;2022-09-25T07:26:07;10.10;99.90
52381;DHT22;38310;52.796;6.942;2022-09-25T07:28:34;10.20;99.90
52381;DHT22;38310;52.796;6.942;2022-09-25T07:31:15;10.30;99.90
52381;DHT22;38310;52.796;6.942;2022-09-25T07:33:42;10.40;99.90
52381;DHT22;38310;52.796;6.942;2022-09-25T07:36:08;10.50;99.90
52381;DHT22;38310;52.796;6.942;2022-09-25T07:38:35;10.50;99.90
52381;DHT22;38310;52.796;6.942;2022-09-25T07:41:03;10.60;99.90
52381;DHT22;38310;52.796;6.942;2022-09-25T07:43:30;10.70;99.90
52381;DHT22;38310;52.796;6.942;2022-09-25T07:45:56;10.80;99.90
52381;DHT22;38310;52.796;6.942;2022-09-25T07:48:22;10.80;99.90
52381;DHT22;38310;52.796;6.942;2022-09-25T07:50:48;10.90;99.90
52381;DHT22;38310;52.796;6.942;2022-09-25T07:53:15;11.00;99.90
52381;DHT22;38310;52.796;6.942;2022-09-25T07:55:43;11.10;99.90
52381;DHT22;38310;52.796;6.942;2022-09-25T07:58:09;11.20;99.90
52381;DHT22;38310;52.796;6.942;2022-09-25T08:00:36;11.30;99.90
52381;DHT22;38310;52.796;6.942;2022-09-25T08:03:02;11.30;99.90
52381;DHT22;38310;52.796;6.942;2022-09-25T08:05:28;11.40;99.90
52381;DHT22;38310;52.796;6.942;2022-09-25T08:07:54;11.50;99.90
52381;DHT22;38310;52.796;6.942;2022-09-25T08:10:20;11.60;99.90
52381;DHT22;38310;52.796;6.942;2022-09-25T08:12:46;11.70;99.90
52381;DHT22;38310;52.796;6.942;2022-09-25T08:15:12;11.70;99.90
52381;DHT22;38310;52.796;6.942;2022-09-25T08:17:41;11.90;99.90
52381;DHT22;38310;52.796;6.942;2022-09-25T08:20:08;12.00;99.90
52381;DHT22;38310;52.796;6.942;2022-09-25T08:22:34;12.00;99.90
52381;DHT22;38310;52.796;6.942;2022-09-25T08:25:00;12.20;99.90
52381;DHT22;38310;52.796;6.942;2022-09-25T08:27:29;12.30;99.90
52381;DHT22;38310;52.796;6.942;2022-09-25T08:29:55;12.40;99.90
52381;DHT22;38310;52.796;6.942;2022-09-25T08:32:20;12.50;99.90
52381;DHT22;38310;52.796;6.942;2022-09-25T08:34:46;12.60;99.90
52381;DHT22;38310;52.796;6.942;2022-09-25T08:37:13;12.70;99.90
52381;DHT22;38310;52.796;6.942;2022-09-25T08:39:39;12.80;99.90
52381;DHT22;38310;52.796;6.942;2022-09-25T08:42:05;13.00;99.90
52381;DHT22;38310;52.796;6.942;2022-09-25T08:44:41;13.10;99.90
52381;DHT22;38310;52.796;6.942;2022-09-25T08:47:18;14.10;99.90
52381;DHT22;38310;52.796;6.942;2022-09-25T08:50:19;13.30;99.90
52381;DHT22;38310;52.796;6.942;2022-09-25T08:52:48;13.50;99.90
52381;DHT22;38310;52.796;6.942;2022-09-25T08:55:27;13.50;99.90
52381;DHT22;38310;52.796;6.942;2022-09-25T08:58:50;13.20;99.90
52381;DHT22;38310;52.796;6.942;2022-09-25T09:01:27;13.80;99.90
52381;DHT22;38310;52.796;6.942;2022-09-25T09:04:02;13.90;99.90
52381;DHT22;38310;52.796;6.942;2022-09-25T09:06:36;14.10;99.90
52381;DHT22;38310;52.796;6.942;2022-09-25T09:14:14;14.30;99.90
52381;DHT22;38310;52.796;6.942;2022-09-25T09:19:11;14.60;99.90
52381;DHT22;38310;52.796;6.942;2022-09-25T09:24:28;14.80;99.90
52381;DHT22;38310;52.796;6.942;2022-09-25T09:32:36;15.20;99.90
52381;DHT22;38310;52.796;6.942;2022-09-25T09:38:15;15.50;99.90
52381;DHT22;38310;52.796;6.942;2022-09-25T09:40:48;15.70;99.90
52381;DHT22;38310;52.796;6.942;2022-09-25T09:43:48;16.00;99.90
52381;DHT22;38310;52.796;6.942;2022-09-25T09:51:33;16.50;99.90
52381;DHT22;38310;52.796;6.942;2022-09-25T09:54:09;16.70;99.90
52381;DHT22;38310;52.796;6.942;2022-09-25T09:56:36;16.90;99.90
52381;DHT22;38310;52.796;6.942;2022-09-25T09:59:13;16.90;99.90
52381;DHT22;38310;52.796;6.942;2022-09-25T10:01:42;16.80;99.90
52381;DHT22;38310;52.796;6.942;2022-09-25T10:04:13;16.60;99.90
52381;DHT22;38310;52.796;6.942;2022-09-25T10:07:04;16.50;99.90
52381;DHT22;38310;52.796;6.942;2022-09-25T10:09:32;16.60;99.90
52381;DHT22;38310;52.796;6.942;2022-09-25T10:12:05;16.60;99.90
52381;DHT22;38310;52.796;6.942;2022-09-25T10:14:37;16.70;99.90
52381;DHT22;38310;52.796;6.942;2022-09-25T10:17:04;17.10;99.90
52381;DHT22;38310;52.796;6.942;2022-09-25T10:19:43;17.40;99.90
52381;DHT22;38310;52.796;6.942;2022-09-25T10:22:15;17.70;99.90
52381;DHT22;38310;52.796;6.942;2022-09-25T10:24:58;18.00;99.90
52381;DHT22;38310;52.796;6.942;2022-09-25T10:35:23;17.70;99.90
52381;DHT22;38310;52.796;6.942;2022-09-25T10:37:55;17.60;99.90
52381;DHT22;38310;52.796;6.942;2022-09-25T10:40:33;17.30;99.90
52381;DHT22;38310;52.796;6.942;2022-09-25T10:43:20;17.20;99.90
52381;DHT22;38310;52.796;6.942;2022-09-25T10:45:49;16.80;99.90
52381;DHT22;38310;52.796;6.942;2022-09-25T10:48:27;16.50;99.90
52381;DHT22;38310;52.796;6.942;2022-09-25T10:51:12;16.50;99.90
52381;DHT22;38310;52.796;6.942;2022-09-25T10:53:42;16.20;99.90
52381;DHT22;38310;52.796;6.942;2022-09-25T10:56:10;16.20;99.90
52381;DHT22;38310;52.796;6.942;2022-09-25T10:58:41;16.20;99.90
52381;DHT22;38310;52.796;6.942;2022-09-25T11:01:09;16.20;99.90
52381;DHT22;38310;52.796;6.942;2022-09-25T11:06:47;16.20;99.90
52381;DHT22;38310;52.796;6.942;2022-09-25T11:09:16;16.10;99.90
52381;DHT22;38310;52.796;6.942;2022-09-25T11:11:44;16.00;99.90
52381;DHT22;38310;52.796;6.942;2022-09-25T11:14:26;16.00;99.90
52381;DHT22;38310;52.796;6.942;2022-09-25T11:16:59;16.00;99.90
52381;DHT22;38310;52.796;6.942;2022-09-25T11:19:33;15.90;99.90
52381;DHT22;38310;52.796;6.942;2022-09-25T11:22:18;16.00;99.90
52381;DHT22;38310;52.796;6.942;2022-09-25T11:43:49;16.40;99.90
52381;DHT22;38310;52.796;6.942;2022-09-25T11:46:25;16.40;99.90
52381;DHT22;38310;52.796;6.942;2022-09-25T12:11:48;16.80;99.90
52381;DHT22;38310;52.796;6.942;2022-09-25T12:14:48;16.80;99.90
52381;DHT22;38310;52.796;6.942;2022-09-25T12:22:48;17.20;99.90
52381;DHT22;38310;52.796;6.942;2022-09-25T12:33:36;17.80;99.90
52381;DHT22;38310;52.796;6.942;2022-09-25T12:36:12;17.80;99.90
52381;DHT22;38310;52.796;6.942;2022-09-25T12:38:53;18.40;99.90
52381;DHT22;38310;52.796;6.942;2022-09-25T12:43:56;19.60;99.90
52381;DHT22;38310;52.796;6.942;2022-09-25T12:52:40;20.40;99.90
52381;DHT22;38310;52.796;6.942;2022-09-25T12:55:20;21.50;99.90
52381;DHT22;38310;52.796;6.942;2022-09-25T12:58:04;22.00;99.90
52381;DHT22;38310;52.796;6.942;2022-09-25T13:00:33;22.40;99.90
52381;DHT22;38310;52.796;6.942;2022-09-25T13:03:11;23.00;99.90
52381;DHT22;38310;52.796;6.942;2022-09-25T13:06:06;24.10;99.90
52381;DHT22;38310;52.796;6.942;2022-09-25T13:11:38;24.10;98.20
52381;DHT22;38310;52.796;6.942;2022-09-25T13:14:17;24.00;98.70
52381;DHT22;38310;52.796;6.942;2022-09-25T13:16:47;23.50;97.10
52381;DHT22;38310;52.796;6.942;2022-09-25T13:19:24;22.90;99.30
52381;DHT22;38310;52.796;6.942;2022-09-25T13:21:56;22.50;98.00
52381;DHT22;38310;52.796;6.942;2022-09-25T13:24:23;22.10;99.90
52381;DHT22;38310;52.796;6.942;2022-09-25T13:26:52;21.60;99.90
52381;DHT22;38310;52.796;6.942;2022-09-25T13:29:24;21.30;99.90
52381;DHT22;38310;52.796;6.942;2022-09-25T13:32:12;21.00;99.90
52381;DHT22;38310;52.796;6.942;2022-09-25T13:34:40;20.70;99.90
52381;DHT22;38310;52.796;6.942;2022-09-25T13:37:09;20.40;99.90
52381;DHT22;38310;52.796;6.942;2022-09-25T13:39:47;20.40;99.90
52381;DHT22;38310;52.796;6.942;2022-09-25T13:47:56;19.20;99.90
52381;DHT22;38310;52.796;6.942;2022-09-25T13:50:24;19.00;99.90
52381;DHT22;38310;52.796;6.942;2022-09-25T13:52:55;18.60;99.90
52381;DHT22;38310;52.796;6.942;2022-09-25T13:58:29;18.10;99.90
52381;DHT22;38310;52.796;6.942;2022-09-25T14:00:59;18.00;99.90
52381;DHT22;38310;52.796;6.942;2022-09-25T14:03:34;17.40;99.90
52381;DHT22;38310;52.796;6.942;2022-09-25T14:06:01;17.60;99.90
52381;DHT22;38310;52.796;6.942;2022-09-25T14:08:30;17.60;99.90
52381;DHT22;38310;52.796;6.942;2022-09-25T14:10:59;17.50;99.90
52381;DHT22;38310;52.796;6.942;2022-09-25T14:13:27;17.60;99.90
52381;DHT22;38310;52.796;6.942;2022-09-25T14:15:58;17.40;99.90
52381;DHT22;38310;52.796;6.942;2022-09-25T14:18:33;17.30;99.90
52381;DHT22;38310;52.796;6.942;2022-09-25T14:21:02;17.10;99.90
52381;DHT22;38310;52.796;6.942;2022-09-25T14:23:55;16.90;99.90
52381;DHT22;38310;52.796;6.942;2022-09-25T14:26:26;16.70;99.90
52381;DHT22;38310;52.796;6.942;2022-09-25T14:28:54;16.60;99.90
52381;DHT22;38310;52.796;6.942;2022-09-25T14:42:48;16.20;99.90
52381;DHT22;38310;52.796;6.942;2022-09-25T14:45:29;16.20;99.90
52381;DHT22;38310;52.796;6.942;2022-09-25T14:48:16;16.30;99.90
52381;DHT22;38310;52.796;6.942;2022-09-25T14:50:49;16.20;99.90
52381;DHT22;38310;52.796;6.942;2022-09-25T14:53:32;16.10;99.90
52381;DHT22;38310;52.796;6.942;2022-09-25T14:56:00;16.20;99.90
52381;DHT22;38310;52.796;6.942;2022-09-25T14:58:30;16.40;99.90
52381;DHT22;38310;52.796;6.942;2022-09-25T15:01:27;16.40;99.90
52381;DHT22;38310;52.796;6.942;2022-09-25T15:03:57;16.40;99.90
52381;DHT22;38310;52.796;6.942;2022-09-25T15:06:31;16.50;99.90
52381;DHT22;38310;52.796;6.942;2022-09-25T15:08:57;16.50;99.90
52381;DHT22;38310;52.796;6.942;2022-09-25T15:11:26;16.40;99.90
52381;DHT22;38310;52.796;6.942;2022-09-25T15:14:16;16.40;99.90
52381;DHT22;38310;52.796;6.942;2022-09-25T15:16:43;16.40;99.90
52381;DHT22;38310;52.796;6.942;2022-09-25T15:19:34;16.40;99.90
52381;DHT22;38310;52.796;6.942;2022-09-25T15:22:17;16.40;99.90
52381;DHT22;38310;52.796;6.942;2022-09-25T15:24:54;16.30;99.90
52381;DHT22;38310;52.796;6.942;2022-09-25T15:27:23;16.30;99.90
52381;DHT22;38310;52.796;6.942;2022-09-25T15:29:50;16.10;99.90
52381;DHT22;38310;52.796;6.942;2022-09-25T15:32:18;16.10;99.90
52381;DHT22;38310;52.796;6.942;2022-09-25T15:34:45;15.90;99.90
52381;DHT22;38310;52.796;6.942;2022-09-25T15:39:52;15.70;99.90
52381;DHT22;38310;52.796;6.942;2022-09-25T15:42:18;15.50;99.90
52381;DHT22;38310;52.796;6.942;2022-09-25T15:44:45;15.50;99.90
52381;DHT22;38310;52.796;6.942;2022-09-25T15:49:56;15.30;99.90
52381;DHT22;38310;52.796;6.942;2022-09-25T15:52:25;15.20;99.90
52381;DHT22;38310;52.796;6.942;2022-09-25T15:55:04;15.00;99.90
52381;DHT22;38310;52.796;6.942;2022-09-25T15:57:32;15.10;99.90
52381;DHT22;38310;52.796;6.942;2022-09-25T16:00:04;15.00;99.90
52381;DHT22;38310;52.796;6.942;2022-09-25T16:03:13;14.70;99.90
52381;DHT22;38310;52.796;6.942;2022-09-25T16:06:15;14.50;99.90
52381;DHT22;38310;52.796;6.942;2022-09-25T16:08:42;14.50;99.90
52381;DHT22;38310;52.796;6.942;2022-09-25T16:11:21;14.40;99.90
52381;DHT22;38310;52.796;6.942;2022-09-25T16:13:50;14.20;99.90
52381;DHT22;38310;52.796;6.942;2022-09-25T16:18:46;14.20;99.90
52381;DHT22;38310;52.796;6.942;2022-09-25T16:21:20;14.10;99.90
52381;DHT22;38310;52.796;6.942;2022-09-25T16:23:58;14.20;99.90
52381;DHT22;38310;52.796;6.942;2022-09-25T16:26:36;14.20;99.90
52381;DHT22;38310;52.796;6.942;2022-09-25T16:29:15;14.10;99.90
52381;DHT22;38310;52.796;6.942;2022-09-25T16:31:43;14.10;99.90
52381;DHT22;38310;52.796;6.942;2022-09-25T16:34:31;14.10;99.90
52381;DHT22;38310;52.796;6.942;2022-09-25T16:37:01;14.00;99.90
52381;DHT22;38310;52.796;6.942;2022-09-25T16:39:36;13.90;99.90
52381;DHT22;38310;52.796;6.942;2022-09-25T16:44:47;13.70;99.90
52381;DHT22;38310;52.796;6.942;2022-09-25T16:47:18;13.60;99.90
52381;DHT22;38310;52.796;6.942;2022-09-25T16:49:45;13.60;99.90
52381;DHT22;38310;52.796;6.942;2022-09-25T16:52:18;13.50;99.90
52381;DHT22;38310;52.796;6.942;2022-09-25T16:54:50;13.40;99.90
52381;DHT22;38310;52.796;6.942;2022-09-25T16:57:20;13.30;99.90
52381;DHT22;38310;52.796;6.942;2022-09-25T16:59:46;13.30;99.90
52381;DHT22;38310;52.796;6.942;2022-09-25T17:04:59;13.10;99.90
52381;DHT22;38310;52.796;6.942;2022-09-25T17:07:25;13.00;99.90
52381;DHT22;38310;52.796;6.942;2022-09-25T17:09:51;13.00;99.90
52381;DHT22;38310;52.796;6.942;2022-09-25T17:12:19;12.50;99.90
52381;DHT22;38310;52.796;6.942;2022-09-25T17:14:46;12.90;99.90
52381;DHT22;38310;52.796;6.942;2022-09-25T17:17:16;12.80;99.90
52381;DHT22;38310;52.796;6.942;2022-09-25T17:19:42;12.80;99.90
52381;DHT22;38310;52.796;6.942;2022-09-25T17:22:08;12.80;99.90
52381;DHT22;38310;52.796;6.942;2022-09-25T17:24:34;12.80;99.90
52381;DHT22;38310;52.796;6.942;2022-09-25T17:27:00;12.80;99.90
52381;DHT22;38310;52.796;6.942;2022-09-25T17:29:26;12.70;99.90
52381;DHT22;38310;52.796;6.942;2022-09-25T17:31:53;12.70;99.90
52381;DHT22;38310;52.796;6.942;2022-09-25T17:34:21;12.70;99.90
52381;DHT22;38310;52.796;6.942;2022-09-25T17:36:49;12.70;99.90
52381;DHT22;38310;52.796;6.942;2022-09-25T17:39:15;12.70;99.90
52381;DHT22;38310;52.796;6.942;2022-09-25T17:41:41;12.60;99.90
52381;DHT22;38310;52.796;6.942;2022-09-25T17:44:11;12.60;99.90
52381;DHT22;38310;52.796;6.942;2022-09-25T17:46:38;12.50;99.90
52381;DHT22;38310;52.796;6.942;2022-09-25T17:49:04;12.40;99.90
52381;DHT22;38310;52.796;6.942;2022-09-25T17:51:30;12.40;99.90
52381;DHT22;38310;52.796;6.942;2022-09-25T17:53:57;12.40;99.90
52381;DHT22;38310;52.796;6.942;2022-09-25T17:56:25;12.30;99.90
52381;DHT22;38310;52.796;6.942;2022-09-25T17:58:54;12.20;99.90
52381;DHT22;38310;52.796;6.942;2022-09-25T18:01:24;12.10;99.90
52381;DHT22;38310;52.796;6.942;2022-09-25T18:03:52;12.10;99.90
52381;DHT22;38310;52.796;6.942;2022-09-25T18:06:18;12.10;99.90
52381;DHT22;38310;52.796;6.942;2022-09-25T18:08:45;12.00;99.90
52381;DHT22;38310;52.796;6.942;2022-09-25T18:11:12;11.90;99.90
52381;DHT22;38310;52.796;6.942;2022-09-25T18:13:39;11.90;99.90
52381;DHT22;38310;52.796;6.942;2022-09-25T18:16:05;11.80;99.90
52381;DHT22;38310;52.796;6.942;2022-09-25T18:18:33;11.70;99.90
52381;DHT22;38310;52.796;6.942;2022-09-25T18:21:17;11.60;99.90
52381;DHT22;38310;52.796;6.942;2022-09-25T18:24:02;11.60;99.90
52381;DHT22;38310;52.796;6.942;2022-09-25T18:26:29;11.60;99.90
52381;DHT22;38310;52.796;6.942;2022-09-25T18:28:55;11.50;99.90
52381;DHT22;38310;52.796;6.942;2022-09-25T18:31:21;11.40;99.90
52381;DHT22;38310;52.796;6.942;2022-09-25T18:33:47;11.50;99.90
52381;DHT22;38310;52.796;6.942;2022-09-25T18:36:13;11.50;99.90
52381;DHT22;38310;52.796;6.942;2022-09-25T18:38:39;11.50;99.90
52381;DHT22;38310;52.796;6.942;2022-09-25T18:41:05;11.40;99.90
52381;DHT22;38310;52.796;6.942;2022-09-25T18:43:32;11.40;99.90
52381;DHT22;38310;52.796;6.942;2022-09-25T18:45:58;11.40;99.90